createdAt,value
2019-04-16T00:01:27.960Z,78.30
2019-04-16T00:03:56.342Z,78.80
2019-04-16T00:06:36.427Z,79.70
2019-04-16T00:09:18.565Z,80.00
2019-04-16T00:11:52.750Z,80.00
2019-04-16T00:14:23.987Z,80.20
2019-04-16T00:16:50.366Z,81.00
2019-04-16T00:19:16.837Z,81.20
2019-04-16T00:21:53.691Z,82.10
2019-04-16T00:24:24.514Z,81.60
2019-04-16T00:26:51.017Z,82.10
2019-04-16T00:29:17.420Z,83.20
2019-04-16T00:31:45.750Z,84.20
2019-04-16T00:34:14.254Z,84.40
2019-04-16T00:36:42.296Z,85.30
2019-04-16T00:39:08.581Z,85.70
2019-04-16T00:41:35.006Z,85.50
2019-04-16T00:44:01.693Z,86.20
2019-04-16T00:46:28.196Z,86.70
2019-04-16T00:48:54.577Z,87.60
2019-04-16T00:51:21.345Z,88.30
2019-04-16T00:53:47.920Z,89.00
2019-04-16T00:56:16.207Z,89.70
2019-04-16T00:58:42.921Z,90.00
2019-04-16T01:01:09.416Z,90.80
2019-04-16T01:03:35.727Z,91.00
2019-04-16T01:06:06.749Z,91.30
2019-04-16T01:08:30.324Z,91.30
2019-04-16T01:10:56.808Z,91.80
2019-04-16T01:13:24.513Z,92.20
2019-04-16T01:15:51.599Z,92.80
2019-04-16T01:18:18.156Z,92.60
2019-04-16T01:20:44.632Z,93.20
2019-04-16T01:23:11.175Z,93.40
2019-04-16T01:25:37.467Z,93.80
2019-04-16T01:28:05.797Z,93.70
2019-04-16T01:30:36.466Z,94.10
2019-04-16T01:33:14.654Z,94.30
2019-04-16T01:35:43.586Z,94.60
2019-04-16T01:38:20.795Z,94.40
2019-04-16T01:40:52.121Z,95.30
2019-04-16T01:43:18.597Z,95.50
2019-04-16T01:45:45.022Z,95.90
2019-04-16T01:48:11.448Z,96.00
2019-04-16T01:50:37.950Z,96.40
2019-04-16T01:53:04.539Z,96.50
2019-04-16T01:55:31.045Z,96.50
2019-04-16T01:57:59.680Z,97.20
2019-04-16T02:00:25.951Z,97.70
2019-04-16T02:02:52.410Z,98.30
2019-04-16T02:05:20.374Z,98.50
2019-04-16T02:07:47.317Z,98.50
2019-04-16T02:10:13.712Z,98.70
2019-04-16T02:12:43.433Z,98.80
2019-04-16T02:15:09.025Z,98.90
2019-04-16T02:17:35.508Z,98.50
2019-04-16T02:20:06.189Z,99.30
2019-04-16T02:22:31.957Z,99.90
2019-04-16T02:24:58.287Z,99.90
2019-04-16T02:27:26.292Z,99.90
2019-04-16T02:29:53.825Z,99.90
2019-04-16T02:32:20.355Z,99.90
2019-04-16T02:34:46.756Z,99.90
2019-04-16T02:37:13.261Z,99.90
2019-04-16T02:39:48.742Z,99.90
2019-04-16T02:42:07.826Z,99.90
2019-04-16T02:44:34.303Z,99.90
2019-04-16T02:47:05.406Z,99.90
2019-04-16T02:49:29.428Z,99.90
2019-04-16T02:52:00.773Z,99.90
2019-04-16T02:54:34.162Z,99.90
2019-04-16T02:57:25.764Z,99.90
2019-04-16T02:59:49.187Z,99.90
2019-04-16T03:02:34.283Z,99.90
2019-04-16T03:05:02.720Z,99.90
2019-04-16T03:07:29.240Z,99.90
2019-04-16T03:10:01.335Z,99.90
2019-04-16T03:12:24.478Z,99.90
2019-04-16T03:14:51.192Z,99.90
2019-04-16T03:17:25.547Z,99.90
2019-04-16T03:19:53.835Z,99.90
2019-04-16T03:22:20.480Z,99.90
2019-04-16T03:24:47.163Z,99.90
2019-04-16T03:27:13.587Z,99.90
2019-04-16T03:29:40.203Z,99.90
2019-04-16T03:32:06.616Z,99.90
2019-04-16T03:34:32.966Z,99.90
2019-04-16T03:37:02.032Z,99.90
2019-04-16T03:39:27.732Z,99.90
2019-04-16T03:41:56.295Z,99.90
2019-04-16T03:44:22.532Z,99.90
2019-04-16T03:46:49.182Z,99.90
2019-04-16T03:49:15.566Z,99.90
2019-04-16T03:51:42.071Z,99.90
2019-04-16T03:54:08.337Z,99.90
2019-04-16T03:56:34.851Z,99.90
2019-04-16T03:59:01.563Z,99.90
2019-04-16T04:01:27.907Z,99.90
2019-04-16T04:03:54.411Z,99.90
2019-04-16T04:06:22.723Z,99.90
2019-04-16T04:08:53.010Z,99.90
2019-04-16T04:11:17.713Z,99.90
2019-04-16T04:13:44.087Z,99.90
2019-04-16T04:16:11.307Z,99.90
2019-04-16T04:18:42.921Z,99.90
2019-04-16T04:21:06.322Z,99.90
2019-04-16T04:23:32.737Z,99.90
2019-04-16T04:25:59.128Z,99.90
2019-04-16T04:28:25.531Z,99.90
2019-04-16T04:30:51.916Z,99.90
2019-04-16T04:33:41.829Z,99.90
2019-04-16T04:36:08.025Z,99.90
2019-04-16T04:38:37.355Z,99.90
2019-04-16T04:41:04.939Z,99.90
2019-04-16T04:43:32.134Z,99.90
2019-04-16T04:45:59.392Z,99.90
2019-04-16T04:48:26.501Z,99.90
2019-04-16T04:50:52.971Z,99.90
2019-04-16T04:53:20.096Z,99.90
2019-04-16T04:55:46.777Z,99.90
2019-04-16T04:58:13.198Z,99.90
2019-04-16T05:00:40.536Z,99.90
2019-04-16T05:03:12.442Z,99.90
2019-04-16T05:05:42.531Z,99.90
2019-04-16T05:08:09.061Z,99.90
2019-04-16T05:10:39.880Z,99.90
2019-04-16T05:13:03.958Z,99.90
2019-04-16T05:15:30.383Z,99.90
2019-04-16T05:17:56.771Z,99.90
2019-04-16T05:20:23.073Z,99.90
2019-04-16T05:22:50.531Z,99.90
2019-04-16T05:25:17.715Z,99.90
2019-04-16T05:27:44.003Z,99.90
2019-04-16T05:30:10.796Z,99.90
2019-04-16T05:32:37.428Z,99.90
2019-04-16T05:35:09.172Z,99.90
2019-04-16T05:37:33.701Z,99.90
2019-04-16T05:40:00.132Z,99.90
2019-04-16T05:42:26.444Z,99.90
2019-04-16T05:44:52.972Z,99.90
2019-04-16T05:47:19.296Z,99.90
2019-04-16T05:49:45.696Z,99.90
2019-04-16T05:52:12.074Z,99.90
2019-04-16T05:54:55.276Z,99.90
2019-04-16T05:57:26.515Z,99.90
2019-04-16T05:59:52.258Z,99.90
2019-04-16T06:02:20.872Z,99.90
2019-04-16T06:04:47.352Z,99.90
2019-04-16T06:07:13.834Z,99.90
2019-04-16T06:09:41.519Z,99.90
2019-04-16T06:12:09.455Z,99.90
2019-04-16T06:14:40.677Z,99.90
2019-04-16T06:17:31.662Z,99.90
2019-04-16T06:20:01.717Z,99.90
2019-04-16T06:22:35.759Z,99.90
2019-04-16T06:25:09.501Z,99.90
2019-04-16T06:27:35.266Z,99.90
2019-04-16T06:30:19.947Z,99.90
2019-04-16T06:32:51.003Z,99.90
2019-04-16T06:35:43.044Z,99.90
2019-04-16T06:38:08.814Z,99.90
2019-04-16T06:40:48.987Z,99.90
2019-04-16T06:43:17.493Z,99.90
2019-04-16T06:46:02.598Z,99.90
2019-04-16T06:48:47.268Z,99.90
2019-04-16T06:51:15.571Z,99.90
2019-04-16T06:54:00.483Z,99.90
2019-04-16T06:56:40.337Z,99.90
2019-04-16T06:59:26.778Z,99.90
2019-04-16T07:01:57.877Z,99.90
2019-04-16T07:04:30.674Z,99.90
2019-04-16T07:07:16.863Z,99.90
2019-04-16T07:09:45.990Z,99.90
2019-04-16T07:12:14.583Z,99.90
2019-04-16T07:14:40.914Z,99.90
2019-04-16T07:17:07.517Z,99.90
2019-04-16T07:19:34.244Z,99.90
2019-04-16T07:22:00.633Z,99.90
2019-04-16T07:24:30.121Z,99.90
2019-04-16T07:26:56.521Z,99.90
2019-04-16T07:29:25.542Z,99.90
2019-04-16T07:32:10.425Z,99.90
2019-04-16T07:34:56.802Z,99.90
2019-04-16T07:37:33.198Z,99.90
2019-04-16T07:40:17.433Z,99.90
2019-04-16T07:42:52.121Z,99.90
2019-04-16T07:45:16.134Z,99.90
2019-04-16T07:48:00.831Z,99.90
2019-04-16T07:50:41.043Z,99.90
2019-04-16T07:53:13.211Z,99.90
2019-04-16T07:55:42.518Z,99.90
2019-04-16T07:58:09.092Z,99.90
2019-04-16T08:00:40.160Z,99.90
2019-04-16T08:03:04.439Z,99.70
2019-04-16T08:05:30.882Z,99.90
2019-04-16T08:07:57.207Z,99.60
2019-04-16T08:10:23.837Z,99.90
2019-04-16T08:12:52.272Z,99.50
2019-04-16T08:15:18.909Z,98.90
2019-04-16T08:17:45.298Z,98.30
2019-04-16T08:20:12.014Z,98.10
2019-04-16T08:22:40.043Z,97.40
2019-04-16T08:25:06.972Z,97.30
2019-04-16T08:27:33.450Z,97.70
2019-04-16T08:30:03.396Z,97.80
2019-04-16T08:32:28.434Z,97.50
2019-04-16T08:34:55.069Z,96.90
2019-04-16T08:37:21.601Z,96.60
2019-04-16T08:39:48.294Z,96.40
2019-04-16T08:42:14.798Z,96.20
2019-04-16T08:44:41.322Z,96.20
2019-04-16T08:47:11.526Z,95.70
2019-04-16T08:49:36.327Z,95.80
2019-04-16T08:52:02.973Z,97.20
2019-04-16T08:54:29.338Z,96.60
2019-04-16T08:56:55.866Z,95.80
2019-04-16T08:59:22.371Z,95.60
2019-04-16T09:01:51.456Z,95.90
2019-04-16T09:04:17.452Z,95.10
2019-04-16T09:06:46.314Z,95.60
2019-04-16T09:09:24.411Z,95.70
2019-04-16T09:11:50.362Z,95.00
2019-04-16T09:14:20.921Z,95.30
2019-04-16T09:16:56.468Z,95.00
2019-04-16T09:19:24.100Z,94.90
2019-04-16T09:21:50.671Z,94.70
2019-04-16T09:24:40.523Z,94.30
2019-04-16T09:27:22.314Z,94.50
2019-04-16T09:30:09.868Z,94.50
2019-04-16T09:32:37.127Z,93.70
2019-04-16T09:35:17.453Z,93.30
2019-04-16T09:37:52.048Z,93.30
2019-04-16T09:40:37.233Z,93.40
2019-04-16T09:43:15.988Z,92.20
2019-04-16T09:45:37.333Z,93.10
2019-04-16T09:48:03.839Z,93.80
2019-04-16T09:50:30.298Z,93.60
2019-04-16T09:52:56.738Z,93.40
2019-04-16T09:55:23.238Z,93.60
2019-04-16T09:57:49.577Z,93.20
2019-04-16T10:00:37.513Z,94.30
2019-04-16T10:03:20.788Z,93.70
2019-04-16T10:05:47.416Z,92.40
2019-04-16T10:08:13.964Z,93.30
2019-04-16T10:10:40.389Z,92.50
2019-04-16T10:13:06.983Z,93.40
2019-04-16T10:15:33.694Z,92.80
2019-04-16T10:18:01.585Z,93.70
2019-04-16T10:20:28.722Z,93.00
2019-04-16T10:22:55.209Z,92.40
2019-04-16T10:25:21.745Z,92.50
2019-04-16T10:27:50.392Z,92.60
2019-04-16T10:30:30.055Z,92.70
2019-04-16T10:32:56.127Z,91.50
2019-04-16T10:35:22.848Z,92.10
2019-04-16T10:37:49.257Z,92.30
2019-04-16T10:40:26.529Z,92.20
2019-04-16T10:42:55.068Z,91.80
2019-04-16T10:45:29.654Z,92.40
2019-04-16T10:48:12.999Z,91.40
2019-04-16T10:50:44.383Z,91.50
2019-04-16T10:53:21.648Z,91.60
2019-04-16T10:55:55.938Z,91.00
2019-04-16T10:58:30.357Z,90.90
2019-04-16T11:00:58.815Z,90.70
2019-04-16T11:03:28.793Z,90.70
2019-04-16T11:05:57.858Z,90.50
2019-04-16T11:08:24.358Z,90.40
2019-04-16T11:10:51.057Z,90.30
2019-04-16T11:13:25.190Z,89.40
2019-04-16T11:15:52.099Z,88.70
2019-04-16T11:18:18.709Z,90.10
2019-04-16T11:20:45.386Z,90.00
2019-04-16T11:23:12.054Z,90.40
2019-04-16T11:25:38.707Z,86.80
2019-04-16T11:28:05.383Z,86.40
2019-04-16T11:30:43.353Z,86.90
2019-04-16T11:33:09.871Z,85.90
2019-04-16T11:35:36.474Z,86.00
2019-04-16T11:38:03.197Z,84.90
2019-04-16T11:40:29.694Z,85.90
2019-04-16T11:42:56.265Z,86.50
2019-04-16T11:45:23.084Z,84.90
2019-04-16T11:47:49.659Z,85.10
2019-04-16T11:50:16.207Z,84.20
2019-04-16T11:52:42.758Z,83.40
2019-04-16T11:55:09.386Z,82.90
2019-04-16T11:57:36.110Z,81.60
2019-04-16T12:00:11.589Z,82.60
2019-04-16T12:02:40.049Z,80.80
2019-04-16T12:05:08.556Z,79.00
2019-04-16T12:07:42.742Z,79.70
2019-04-16T12:10:17.793Z,78.40
2019-04-16T12:12:52.292Z,77.80
2019-04-16T12:15:39.175Z,76.40
2019-04-16T12:18:07.453Z,76.30
2019-04-16T12:20:45.061Z,75.60
2019-04-16T12:23:25.611Z,76.50
2019-04-16T12:26:00.067Z,73.00
2019-04-16T12:28:45.219Z,73.00
2019-04-16T12:31:17.186Z,71.30
2019-04-16T12:33:48.687Z,72.50
2019-04-16T12:36:33.502Z,72.70
2019-04-16T12:39:18.373Z,71.60
2019-04-16T12:41:44.560Z,71.40
2019-04-16T12:44:24.107Z,70.80
2019-04-16T12:47:04.276Z,71.60
2019-04-16T12:49:48.943Z,69.00
2019-04-16T12:52:17.717Z,69.60
2019-04-16T12:54:49.213Z,68.90
2019-04-16T12:57:17.664Z,68.10
2019-04-16T12:59:55.674Z,69.00
2019-04-16T13:02:35.890Z,70.70
2019-04-16T13:05:05.801Z,68.50
2019-04-16T13:07:46.247Z,67.80
2019-04-16T13:10:29.424Z,68.10
2019-04-16T13:13:15.629Z,64.70
2019-04-16T13:15:46.636Z,66.70
2019-04-16T13:18:17.968Z,65.70
2019-04-16T13:21:05.400Z,66.10
2019-04-16T13:23:36.013Z,65.80
2019-04-16T13:26:11.811Z,64.70
2019-04-16T13:28:36.090Z,64.70
2019-04-16T13:31:02.694Z,63.60
2019-04-16T13:33:29.215Z,63.60
2019-04-16T13:35:55.735Z,63.40
2019-04-16T13:38:24.191Z,62.80
2019-04-16T13:40:53.053Z,62.70
2019-04-16T13:43:21.208Z,62.30
2019-04-16T13:45:47.966Z,61.40
2019-04-16T13:48:28.331Z,61.90
2019-04-16T13:50:59.911Z,61.50
2019-04-16T13:53:29.085Z,60.30
2019-04-16T13:56:17.804Z,60.30
2019-04-16T13:59:00.397Z,60.70
2019-04-16T14:01:28.935Z,60.50
2019-04-16T14:03:56.492Z,60.00
2019-04-16T14:06:23.672Z,59.10
2019-04-16T14:08:50.207Z,60.10
2019-04-16T14:11:19.660Z,59.90
2019-04-16T14:13:46.439Z,60.40
2019-04-16T14:16:13.847Z,60.20
2019-04-16T14:18:40.496Z,59.50
2019-04-16T14:21:07.122Z,59.50
2019-04-16T14:23:33.629Z,58.60
2019-04-16T14:26:00.726Z,58.30
2019-04-16T14:28:27.275Z,57.70
2019-04-16T14:30:53.665Z,58.10
2019-04-16T14:33:22.054Z,56.30
2019-04-16T14:35:48.545Z,56.00
2019-04-16T14:38:16.855Z,51.10
2019-04-16T14:40:43.484Z,47.20
2019-04-16T14:43:10.894Z,47.20
2019-04-16T14:45:56.849Z,47.30
2019-04-16T14:48:10.976Z,46.30
2019-04-16T14:50:37.736Z,46.20
2019-04-16T14:53:04.140Z,45.50
2019-04-16T14:55:32.614Z,45.20
2019-04-16T14:58:17.518Z,45.70
2019-04-16T15:00:54.994Z,45.20
2019-04-16T15:03:43.154Z,45.10
2019-04-16T15:06:10.064Z,43.60
2019-04-16T15:08:41.184Z,44.10
2019-04-16T15:11:12.515Z,45.20
2019-04-16T15:13:43.539Z,45.80
2019-04-16T15:16:21.050Z,46.70
2019-04-16T15:19:01.735Z,45.70
2019-04-16T15:21:30.191Z,45.50
2019-04-16T15:24:01.303Z,46.10
2019-04-16T15:26:34.883Z,45.80
2019-04-16T15:29:03.280Z,44.50
2019-04-16T15:31:49.614Z,44.50
2019-04-16T15:34:23.980Z,44.80
2019-04-16T15:36:55.262Z,45.50
2019-04-16T15:39:23.610Z,45.80
2019-04-16T15:41:51.980Z,46.60
2019-04-16T15:44:23.694Z,45.90
2019-04-16T15:46:56.493Z,44.60
2019-04-16T15:49:41.458Z,44.40
2019-04-16T15:52:11.985Z,44.90
2019-04-16T15:54:56.435Z,46.10
2019-04-16T15:57:39.681Z,45.60
2019-04-16T16:00:09.316Z,46.10
2019-04-16T16:02:55.680Z,45.80
2019-04-16T16:05:26.805Z,47.60
2019-04-16T16:08:11.126Z,49.70
2019-04-16T16:10:39.431Z,46.20
2019-04-16T16:13:05.953Z,46.10
2019-04-16T16:15:32.502Z,46.00
2019-04-16T16:18:00.969Z,47.10
2019-04-16T16:20:27.465Z,47.10
2019-04-16T16:22:54.562Z,46.70
2019-04-16T16:25:22.571Z,46.80
2019-04-16T16:27:48.993Z,46.80
2019-04-16T16:30:15.757Z,46.80
2019-04-16T16:32:42.540Z,45.90
2019-04-16T16:35:09.204Z,48.50
2019-04-16T16:37:36.876Z,47.00
2019-04-16T16:40:05.693Z,49.30
2019-04-16T16:42:32.219Z,48.80
2019-04-16T16:45:01.714Z,49.50
2019-04-16T16:47:32.144Z,48.90
2019-04-16T16:49:58.818Z,51.10
2019-04-16T16:52:35.983Z,51.40
2019-04-16T16:55:07.166Z,50.90
2019-04-16T16:57:38.414Z,52.90
2019-04-16T17:00:23.802Z,51.90
2019-04-16T17:02:52.167Z,53.90
2019-04-16T17:05:20.932Z,52.00
2019-04-16T17:07:50.712Z,52.50
2019-04-16T17:10:16.049Z,51.70
2019-04-16T17:12:42.635Z,52.90
2019-04-16T17:15:09.660Z,52.90
2019-04-16T17:17:36.302Z,54.10
2019-04-16T17:20:03.381Z,52.60
2019-04-16T17:22:29.999Z,53.70
2019-04-16T17:24:56.448Z,54.30
2019-04-16T17:27:23.052Z,53.80
2019-04-16T17:29:50.914Z,55.00
2019-04-16T17:32:17.753Z,55.90
2019-04-16T17:34:44.492Z,57.90
2019-04-16T17:37:11.077Z,57.40
2019-04-16T17:39:43.352Z,58.10
2019-04-16T17:42:12.024Z,58.70
2019-04-16T17:44:57.018Z,59.70
2019-04-16T17:47:42.030Z,60.60
2019-04-16T17:50:13.127Z,59.20
2019-04-16T17:52:56.382Z,56.90
2019-04-16T17:55:27.819Z,56.20
2019-04-16T17:57:56.208Z,56.30
2019-04-16T18:00:27.540Z,56.40
2019-04-16T18:03:03.048Z,56.80
2019-04-16T18:05:32.066Z,56.90
2019-04-16T18:08:09.523Z,57.00
2019-04-16T18:10:40.642Z,57.60
2019-04-16T18:13:11.705Z,58.10
2019-04-16T18:15:42.781Z,58.60
2019-04-16T18:18:16.932Z,58.40
2019-04-16T18:20:56.787Z,58.40
2019-04-16T18:23:28.708Z,58.70
2019-04-16T18:26:13.755Z,58.80
2019-04-16T18:28:42.121Z,59.00
2019-04-16T18:31:16.254Z,61.70
2019-04-16T18:33:47.362Z,65.00
2019-04-16T18:36:18.452Z,67.30
2019-04-16T18:38:47.062Z,68.60
2019-04-16T18:41:27.607Z,70.20
2019-04-16T18:44:06.675Z,71.30
2019-04-16T18:46:47.009Z,72.70
2019-04-16T18:49:17.420Z,74.40
2019-04-16T18:51:44.201Z,76.80
2019-04-16T18:54:10.758Z,79.00
2019-04-16T18:56:37.586Z,81.70
2019-04-16T18:59:04.420Z,84.40
2019-04-16T19:01:33.495Z,86.80
2019-04-16T19:04:00.214Z,89.20
2019-04-16T19:06:26.940Z,90.80
2019-04-16T19:08:53.981Z,92.20
2019-04-16T19:11:22.551Z,93.70
2019-04-16T19:13:49.522Z,94.50
2019-04-16T19:16:16.381Z,95.50
2019-04-16T19:18:43.405Z,96.40
2019-04-16T19:21:10.448Z,97.50
2019-04-16T19:23:37.419Z,98.40
2019-04-16T19:26:04.355Z,99.10
2019-04-16T19:28:31.125Z,99.90
2019-04-16T19:30:57.995Z,99.90
2019-04-16T19:33:24.829Z,99.90
2019-04-16T19:35:52.274Z,99.90
2019-04-16T19:38:19.404Z,99.90
2019-04-16T19:40:47.769Z,99.90
2019-04-16T19:43:17.204Z,99.90
2019-04-16T19:45:44.564Z,99.90
2019-04-16T19:48:12.848Z,99.90
2019-04-16T19:50:39.767Z,99.90
2019-04-16T19:53:06.644Z,99.90
2019-04-16T19:55:33.590Z,99.90
2019-04-16T19:58:00.453Z,99.90
2019-04-16T20:00:27.439Z,99.90
2019-04-16T20:02:54.529Z,99.90
2019-04-16T20:05:21.326Z,99.90
2019-04-16T20:07:48.155Z,99.90
2019-04-16T20:10:15.145Z,99.90
2019-04-16T20:12:42.155Z,99.90
2019-04-16T20:15:09.817Z,99.90
2019-04-16T20:17:36.708Z,99.90
2019-04-16T20:20:05.139Z,99.90
2019-04-16T20:22:32.049Z,99.90
2019-04-16T20:24:59.246Z,99.90
2019-04-16T20:27:26.185Z,99.90
2019-04-16T20:29:53.292Z,99.90
2019-04-16T20:32:20.366Z,99.90
2019-04-16T20:34:47.067Z,99.90
2019-04-16T20:37:13.816Z,99.90
2019-04-16T20:39:40.858Z,99.90
2019-04-16T20:42:07.725Z,99.90
2019-04-16T20:44:34.168Z,99.90
2019-04-16T20:47:03.318Z,99.90
2019-04-16T20:49:29.391Z,99.90
2019-04-16T20:52:00.186Z,99.90
2019-04-16T20:54:24.725Z,99.90
2019-04-16T20:56:53.261Z,99.90
2019-04-16T20:59:20.167Z,99.90
2019-04-16T21:01:46.913Z,99.90
2019-04-16T21:04:13.618Z,99.90
2019-04-16T21:06:41.881Z,99.90
2019-04-16T21:09:08.895Z,99.90
2019-04-16T21:11:40.458Z,99.90
2019-04-16T21:14:04.333Z,99.90
2019-04-16T21:16:33.835Z,99.90
2019-04-16T21:18:59.729Z,99.90
2019-04-16T21:21:26.413Z,99.90
2019-04-16T21:23:52.990Z,99.90
2019-04-16T21:26:20.125Z,99.90
2019-04-16T21:28:51.539Z,99.90
2019-04-16T21:31:25.886Z,99.90
2019-04-16T21:33:54.655Z,99.90
2019-04-16T21:36:29.504Z,99.90
2019-04-16T21:38:58.146Z,99.90
2019-04-16T21:41:25.575Z,99.90
2019-04-16T21:43:53.167Z,99.90
2019-04-16T21:46:20.404Z,99.90
2019-04-16T21:48:47.635Z,99.90
2019-04-16T21:51:19.020Z,99.90
2019-04-16T21:53:42.885Z,99.90
2019-04-16T21:56:09.886Z,99.90
2019-04-16T21:58:36.645Z,99.90
2019-04-16T22:01:08.156Z,99.90
2019-04-16T22:03:41.902Z,99.90
2019-04-16T22:06:04.966Z,99.90
2019-04-16T22:08:31.615Z,99.90
2019-04-16T22:10:58.261Z,99.90
2019-04-16T22:13:24.851Z,99.90
2019-04-16T22:15:53.742Z,99.90
2019-04-16T22:18:19.879Z,99.90
2019-04-16T22:20:46.320Z,99.90
2019-04-16T22:23:13.424Z,99.90
2019-04-16T22:25:41.053Z,99.90
2019-04-16T22:28:11.403Z,99.90
2019-04-16T22:30:36.220Z,99.90
2019-04-16T22:33:06.407Z,99.90
2019-04-16T22:35:31.947Z,99.90
2019-04-16T22:37:58.546Z,99.90
2019-04-16T22:40:26.886Z,99.90
2019-04-16T22:43:05.942Z,99.90
2019-04-16T22:45:37.554Z,99.90
2019-04-16T22:48:04.170Z,99.90
2019-04-16T22:50:30.714Z,99.90
2019-04-16T22:52:57.428Z,99.90
2019-04-16T22:55:25.130Z,99.90
2019-04-16T22:57:52.381Z,99.90
2019-04-16T23:00:32.521Z,99.90
2019-04-16T23:02:59.196Z,99.90
2019-04-16T23:05:27.744Z,99.90
2019-04-16T23:07:54.129Z,99.90
2019-04-16T23:10:20.983Z,99.90
2019-04-16T23:12:48.386Z,99.90
2019-04-16T23:15:15.091Z,99.90
2019-04-16T23:17:42.850Z,99.90
2019-04-16T23:20:10.394Z,99.90
2019-04-16T23:22:37.086Z,99.90
2019-04-16T23:25:04.570Z,99.90
2019-04-16T23:27:31.119Z,99.90
2019-04-16T23:29:57.530Z,99.90
2019-04-16T23:32:27.632Z,99.90
2019-04-16T23:34:52.245Z,99.90
2019-04-16T23:37:22.981Z,99.90
2019-04-16T23:39:46.970Z,99.90
2019-04-16T23:42:13.410Z,99.90
2019-04-16T23:45:00.390Z,99.90
2019-04-16T23:47:31.726Z,99.90
2019-04-16T23:50:02.807Z,99.90
2019-04-16T23:52:31.872Z,99.90
2019-04-16T23:55:01.457Z,99.90
2019-04-16T23:57:39.028Z,99.90
